createdAt,value
2018-02-17T00:00:54.890Z,28.93
2018-02-17T00:03:29.029Z,29.93
2018-02-17T00:06:04.309Z,28.60
2018-02-17T00:08:38.269Z,28.20
2018-02-17T00:11:13.176Z,30.30
2018-02-17T00:13:47.263Z,29.97
2018-02-17T00:16:20.908Z,31.47
2018-02-17T00:18:55.413Z,32.63
2018-02-17T00:21:31.061Z,32.20
2018-02-17T00:24:05.296Z,33.77
2018-02-17T00:26:39.501Z,36.80
2018-02-17T00:29:16.653Z,33.40
2018-02-17T00:31:50.948Z,35.97
2018-02-17T00:34:25.596Z,37.47
2018-02-17T00:36:59.559Z,36.10
2018-02-17T00:39:36.607Z,39.00
2018-02-17T00:42:10.516Z,37.57
2018-02-17T00:44:48.566Z,36.57
2018-02-17T00:47:21.982Z,37.73
2018-02-17T00:49:57.678Z,37.97
2018-02-17T00:52:31.816Z,39.07
2018-02-17T00:55:06.179Z,35.77
2018-02-17T00:57:40.830Z,36.53
2018-02-17T01:00:16.153Z,38.07
2018-02-17T01:02:50.321Z,36.50
2018-02-17T01:05:24.699Z,35.93
2018-02-17T01:07:59.061Z,35.17
2018-02-17T01:10:35.251Z,34.50
2018-02-17T01:13:11.012Z,35.27
2018-02-17T01:15:44.409Z,37.77
2018-02-17T01:18:18.348Z,36.93
2018-02-17T01:20:53.232Z,39.37
2018-02-17T01:23:26.491Z,40.40
2018-02-17T01:26:02.017Z,37.73
2018-02-17T01:28:35.353Z,36.80
2018-02-17T01:31:09.669Z,39.53
2018-02-17T01:33:44.867Z,40.60
2018-02-17T01:36:19.236Z,38.00
2018-02-17T01:38:53.833Z,39.23
2018-02-17T01:41:27.762Z,38.00
2018-02-17T01:44:01.812Z,37.00
2018-02-17T01:46:35.905Z,34.27
2018-02-17T01:49:12.923Z,32.37
2018-02-17T01:51:47.158Z,33.77
2018-02-17T01:54:21.864Z,33.33
2018-02-17T01:56:56.492Z,33.20
2018-02-17T01:59:31.488Z,33.23
2018-02-17T02:02:05.447Z,34.27
2018-02-17T02:04:39.773Z,32.37
2018-02-17T02:07:13.470Z,32.37
2018-02-17T02:09:51.868Z,34.83
2018-02-17T02:12:25.505Z,34.27
2018-02-17T02:15:00.171Z,33.97
2018-02-17T02:17:35.132Z,32.30
2018-02-17T02:20:10.609Z,32.00
2018-02-17T02:22:45.512Z,32.33
2018-02-17T02:25:19.464Z,35.67
2018-02-17T02:27:53.250Z,38.13
2018-02-17T02:30:30.837Z,36.13
2018-02-17T02:33:05.316Z,34.73
2018-02-17T02:35:38.690Z,31.03
2018-02-17T02:38:12.541Z,33.43
2018-02-17T02:40:50.172Z,31.07
2018-02-17T02:43:24.360Z,30.90
2018-02-17T02:45:58.908Z,29.73
2018-02-17T02:48:34.086Z,33.73
2018-02-17T02:51:08.616Z,31.50
2018-02-17T02:53:42.768Z,32.40
2018-02-17T02:56:17.742Z,30.07
2018-02-17T02:58:51.624Z,31.73
2018-02-17T03:01:26.199Z,30.63
2018-02-17T03:04:01.121Z,34.13
2018-02-17T03:06:35.718Z,34.33
2018-02-17T03:09:11.358Z,33.13
2018-02-17T03:11:45.529Z,37.33
2018-02-17T03:14:20.416Z,39.93
2018-02-17T03:16:54.523Z,39.80
2018-02-17T03:19:28.572Z,40.57
2018-02-17T03:22:02.440Z,41.47
2018-02-17T03:24:36.816Z,40.23
2018-02-17T03:27:10.969Z,39.87
2018-02-17T03:29:45.765Z,39.53
2018-02-17T03:32:19.410Z,38.47
2018-02-17T03:34:53.333Z,39.00
2018-02-17T03:37:28.708Z,38.83
2018-02-17T03:40:04.945Z,39.13
2018-02-17T03:42:39.769Z,38.97
2018-02-17T03:45:13.863Z,40.13
2018-02-17T03:47:47.721Z,40.03
2018-02-17T03:50:27.408Z,38.87
2018-02-17T03:53:01.538Z,40.67
2018-02-17T03:55:35.091Z,37.60
2018-02-17T03:58:09.581Z,43.97
2018-02-17T04:00:47.084Z,42.43
2018-02-17T04:03:22.325Z,41.50
2018-02-17T04:05:56.861Z,43.03
2018-02-17T04:08:32.834Z,42.77
2018-02-17T04:11:06.940Z,42.07
2018-02-17T04:13:42.413Z,42.80
2018-02-17T04:16:16.723Z,44.23
2018-02-17T04:18:57.317Z,24.73
2018-02-17T04:21:31.112Z,18.57
2018-02-17T04:24:07.332Z,18.40
2018-02-17T04:26:41.647Z,16.17
2018-02-17T04:29:16.528Z,14.77
2018-02-17T04:31:50.836Z,15.70
2018-02-17T04:34:25.280Z,15.07
2018-02-17T04:36:59.916Z,14.30
2018-02-17T04:39:38.617Z,14.37
2018-02-17T04:42:29.788Z,14.77
2018-02-17T04:45:20.934Z,15.93
2018-02-17T04:48:01.349Z,14.63
2018-02-17T04:50:43.765Z,14.50
2018-02-17T04:53:17.462Z,14.33
2018-02-17T04:55:57.550Z,14.40
2018-02-17T04:58:48.579Z,32.03
2018-02-17T05:01:23.457Z,30.33
2018-02-17T05:03:58.828Z,42.97
2018-02-17T05:06:38.156Z,43.80
2018-02-17T05:09:12.964Z,47.20
2018-02-17T05:11:47.298Z,43.33
2018-02-17T05:14:27.332Z,43.87
2018-02-17T05:17:20.356Z,49.50
2018-02-17T05:20:00.408Z,39.60
2018-02-17T05:22:34.016Z,40.50
2018-02-17T05:25:26.148Z,41.20
2018-02-17T05:28:00.193Z,42.50
2018-02-17T05:30:35.563Z,41.97
2018-02-17T05:33:15.133Z,42.60
2018-02-17T05:36:07.097Z,46.73
2018-02-17T05:38:56.513Z,51.43
2018-02-17T05:41:36.393Z,60.10
2018-02-17T05:44:27.815Z,50.70
2018-02-17T05:47:02.619Z,54.70
2018-02-17T05:49:38.016Z,61.17
2018-02-17T05:52:12.420Z,51.07
2018-02-17T05:54:46.101Z,49.90
2018-02-17T05:57:20.399Z,59.47
2018-02-17T05:59:58.603Z,64.93
2018-02-17T06:02:32.944Z,61.93
2018-02-17T06:05:06.453Z,50.43
2018-02-17T06:07:40.464Z,58.70
2018-02-17T06:10:16.189Z,58.40
2018-02-17T06:12:49.948Z,51.13
2018-02-17T06:15:24.535Z,53.60
2018-02-17T06:17:58.927Z,55.63
2018-02-17T06:20:33.812Z,53.63
2018-02-17T06:23:07.688Z,21.40
2018-02-17T06:25:42.427Z,29.80
2018-02-17T06:28:19.430Z,26.53
2018-02-17T06:30:52.769Z,22.67
2018-02-17T06:33:27.196Z,48.47
2018-02-17T06:36:01.403Z,58.73
2018-02-17T07:27:09.093Z,16.67
2018-02-17T07:29:43.540Z,18.23
2018-02-17T07:32:18.693Z,19.73
2018-02-17T07:34:53.428Z,20.27
2018-02-17T07:37:27.477Z,18.17
2018-02-17T07:40:01.290Z,17.50
2018-02-17T07:42:35.962Z,17.60
2018-02-17T07:45:09.077Z,16.40
2018-02-17T07:47:42.362Z,17.33
2018-02-17T07:50:16.577Z,17.70
2018-02-17T07:52:53.102Z,18.30
2018-02-17T07:55:26.489Z,17.30
2018-02-17T07:57:59.746Z,17.37
2018-02-17T08:00:33.182Z,15.90
2018-02-17T08:03:08.283Z,17.90
2018-02-17T08:05:41.862Z,19.90
2018-02-17T08:08:15.242Z,17.20
2018-02-17T08:10:48.688Z,16.27
2018-02-17T08:13:25.732Z,18.50
2018-02-17T08:15:59.809Z,16.83
2018-02-17T08:18:33.169Z,14.53
2018-02-17T08:24:12.969Z,14.90
2018-02-17T08:26:46.462Z,15.40
2018-02-17T08:33:18.622Z,15.50
2018-02-17T08:35:53.818Z,15.23
2018-02-17T08:38:28.281Z,15.97
2018-02-17T08:41:02.388Z,16.20
2018-02-17T08:43:36.540Z,15.53
2018-02-17T08:46:10.869Z,12.87
2018-02-17T08:48:49.554Z,14.13
2018-02-17T08:51:23.657Z,13.60
2018-02-17T08:53:58.837Z,15.73
2018-02-17T08:56:33.558Z,16.33
2018-02-17T08:59:08.013Z,13.57
2018-02-17T09:01:41.386Z,13.67
2018-02-17T09:04:14.764Z,13.93
2018-02-17T09:06:48.044Z,13.13
2018-02-17T09:09:23.101Z,14.40
2018-02-17T09:11:56.900Z,13.63
2018-02-17T09:14:31.209Z,14.03
2018-02-17T09:17:04.614Z,12.83
2018-02-17T09:19:37.982Z,12.97
2018-02-17T09:22:11.147Z,12.40
2018-02-17T09:24:44.533Z,12.67
2018-02-17T09:27:19.449Z,14.93
2018-02-17T09:29:55.659Z,11.80
2018-02-17T09:32:30.556Z,12.43
2018-02-17T09:35:05.050Z,12.03
2018-02-17T09:37:38.989Z,11.47
2018-02-17T09:40:14.681Z,10.93
2018-02-17T09:42:48.909Z,10.40
2018-02-17T09:45:23.249Z,9.80
2018-02-17T09:47:58.880Z,12.83
2018-02-17T09:50:34.573Z,12.67
2018-02-17T09:53:08.314Z,11.10
2018-02-17T09:55:41.762Z,12.37
2018-02-17T09:58:15.469Z,12.03
2018-02-17T10:00:49.437Z,11.63
2018-02-17T10:03:23.287Z,10.47
2018-02-17T10:05:56.597Z,10.93
2018-02-17T10:08:34.790Z,10.30
2018-02-17T10:11:08.382Z,10.90
2018-02-17T10:13:42.284Z,12.67
2018-02-17T10:16:16.087Z,12.57
2018-02-17T10:18:49.758Z,9.73
2018-02-17T10:21:22.830Z,10.77
2018-02-17T10:23:56.234Z,11.80
2018-02-17T10:26:29.501Z,10.47
2018-02-17T10:29:03.879Z,10.77
2018-02-17T10:31:38.099Z,11.60
2018-02-17T10:34:12.390Z,10.40
2018-02-17T10:36:46.965Z,11.23
2018-02-17T10:39:21.348Z,10.90
2018-02-17T10:41:55.011Z,10.37
2018-02-17T10:44:28.449Z,9.93
2018-02-17T10:47:01.801Z,8.87
2018-02-17T10:49:35.793Z,10.67
2018-02-17T10:52:11.075Z,9.60
2018-02-17T10:54:44.809Z,10.77
2018-02-17T10:57:18.609Z,12.47
2018-02-17T10:59:52.005Z,11.20
2018-02-17T11:02:26.322Z,10.83
2018-02-17T11:04:59.625Z,10.10
2018-02-17T11:07:33.169Z,14.47
2018-02-17T11:10:06.622Z,11.03
2018-02-17T11:12:39.765Z,15.03
2018-02-17T11:15:13.229Z,16.33
2018-02-17T11:17:47.897Z,27.90
2018-02-17T11:20:21.263Z,16.27
2018-02-17T11:22:54.488Z,9.73
2018-02-17T11:25:28.059Z,10.53
2018-02-17T11:28:01.950Z,11.43
2018-02-17T11:30:35.429Z,12.10
2018-02-17T11:33:09.874Z,11.57
2018-02-17T11:35:43.237Z,13.17
2018-02-17T11:38:19.599Z,10.87
2018-02-17T11:40:54.285Z,10.17
2018-02-17T11:43:28.255Z,13.13
2018-02-17T11:46:02.810Z,15.87
2018-02-17T11:48:37.018Z,11.70
2018-02-17T11:51:12.186Z,12.10
2018-02-17T11:53:45.837Z,10.80
2018-02-17T11:56:19.195Z,13.03
2018-02-17T11:58:52.494Z,12.80
2018-02-17T12:01:25.702Z,12.67
2018-02-17T12:03:59.205Z,12.30
2018-02-17T12:06:32.447Z,13.13
2018-02-17T12:09:05.913Z,13.23
2018-02-17T12:11:39.093Z,10.90
2018-02-17T12:14:12.418Z,9.53
2018-02-17T12:16:45.781Z,10.73
2018-02-17T12:19:20.246Z,11.40
2018-02-17T12:21:53.733Z,11.30
2018-02-17T12:24:27.813Z,15.47
2018-02-17T12:27:02.176Z,11.97
2018-02-17T12:29:36.238Z,16.80
2018-02-17T12:32:10.227Z,10.47
2018-02-17T12:34:43.542Z,18.73
2018-02-17T12:37:16.989Z,12.03
2018-02-17T12:39:50.406Z,13.87
2018-02-17T12:42:23.527Z,16.37
2018-02-17T12:44:56.758Z,13.63
2018-02-17T12:47:30.938Z,13.13
2018-02-17T12:50:04.895Z,15.33
2018-02-17T12:52:38.821Z,19.53
2018-02-17T12:55:12.341Z,13.57
2018-02-17T12:57:45.567Z,13.73
2018-02-17T13:00:19.165Z,28.33
2018-02-17T13:05:33.178Z,20.80
2018-02-17T13:08:06.420Z,12.93
2018-02-17T13:10:39.965Z,11.53
2018-02-17T13:13:14.487Z,10.43
2018-02-17T13:15:47.935Z,11.30
2018-02-17T13:18:21.305Z,12.00
2018-02-17T13:20:54.721Z,12.30
2018-02-17T13:23:27.832Z,10.63
2018-02-17T13:26:01.095Z,12.03
2018-02-17T13:28:38.370Z,13.20
2018-02-17T13:31:11.599Z,15.30
2018-02-17T13:33:45.729Z,12.50
2018-02-17T13:36:19.458Z,12.40
2018-02-17T13:38:52.671Z,14.80
2018-02-17T13:41:25.898Z,12.30
2018-02-17T13:43:59.466Z,13.97
2018-02-17T13:46:33.017Z,13.57
2018-02-17T13:49:10.433Z,13.07
2018-02-17T13:51:44.483Z,15.03
2018-02-17T13:54:19.197Z,15.80
2018-02-17T13:58:08.640Z,10.03
2018-02-17T14:00:42.981Z,10.30
2018-02-17T14:03:17.502Z,13.07
2018-02-17T14:05:51.225Z,12.57
2018-02-17T14:08:25.090Z,16.50
2018-02-17T14:10:59.791Z,17.00
2018-02-17T14:13:33.333Z,18.50
2018-02-17T14:16:06.869Z,16.17
2018-02-17T14:18:40.519Z,12.37
2018-02-17T14:21:15.043Z,15.20
2018-02-17T14:23:48.761Z,12.47
2018-02-17T14:26:22.268Z,12.37
2018-02-17T14:28:55.731Z,11.20
2018-02-17T14:31:29.182Z,12.93
2018-02-17T14:34:02.903Z,13.20
2018-02-17T14:36:36.213Z,11.83
2018-02-17T14:39:09.627Z,10.43
2018-02-17T14:41:43.017Z,15.63
2018-02-17T14:44:19.194Z,13.83
2018-02-17T14:46:52.674Z,19.33
2018-02-17T14:49:26.250Z,20.33
2018-02-17T14:51:59.538Z,22.40
2018-02-17T14:54:32.975Z,16.17
2018-02-17T14:57:06.539Z,16.63
2018-02-17T14:59:40.010Z,17.00
2018-02-17T15:02:13.559Z,15.03
2018-02-17T15:04:47.652Z,19.77
2018-02-17T15:07:21.430Z,17.23
2018-02-17T15:09:54.823Z,22.60
2018-02-17T15:12:28.689Z,23.47
2018-02-17T15:15:03.246Z,20.53
2018-02-17T15:17:37.201Z,28.43
2018-02-17T20:31:19.492Z,46.07
2018-02-17T20:33:59.214Z,38.77
2018-02-17T20:36:35.518Z,39.40
2018-02-17T20:39:13.005Z,36.20
2018-02-17T20:42:31.688Z,30.50
2018-02-17T20:43:12.618Z,40.10
2018-02-17T20:43:54.124Z,40.83
2018-02-17T20:44:35.031Z,39.45
2018-02-17T20:45:16.263Z,40.47
2018-02-17T20:45:57.228Z,39.92
2018-02-17T20:46:38.701Z,40.90
2018-02-17T21:13:11.712Z,34.32
2018-02-17T21:15:45.282Z,34.90
2018-02-17T21:18:18.771Z,30.90
2018-02-17T21:20:52.582Z,29.03
2018-02-17T21:23:26.388Z,25.67
2018-02-17T21:26:01.016Z,25.07
2018-02-17T21:28:35.075Z,26.70
2018-02-17T21:31:08.712Z,26.77
2018-02-17T21:33:42.582Z,25.63
2018-02-17T21:36:16.167Z,26.33
2018-02-17T21:43:28.548Z,27.40
2018-02-17T21:48:32.982Z,27.77
2018-02-17T21:58:12.439Z,36.13
2018-02-17T22:03:16.396Z,29.70
2018-02-17T22:08:20.634Z,37.13
2018-02-17T22:13:24.660Z,36.90
2018-02-17T22:18:29.860Z,37.00
2018-02-17T22:23:36.218Z,24.70
2018-02-17T22:28:42.037Z,26.50
2018-02-17T22:33:52.359Z,21.93
2018-02-17T22:38:57.553Z,24.00
2018-02-17T22:44:02.643Z,24.87
2018-02-17T22:50:02.730Z,23.80
2018-02-17T22:55:11.561Z,25.13
2018-02-17T23:00:31.177Z,23.43
2018-02-17T23:05:38.402Z,22.03
2018-02-17T23:10:41.774Z,23.37
2018-02-17T23:15:47.782Z,25.30
2018-02-17T23:20:53.015Z,24.27
2018-02-17T23:25:59.769Z,24.07
2018-02-17T23:31:05.440Z,24.23
2018-02-17T23:36:11.393Z,22.17
2018-02-17T23:41:15.762Z,24.43
2018-02-17T23:46:23.948Z,22.07
2018-02-17T23:51:28.874Z,20.70
2018-02-17T23:56:37.157Z,22.93
